sensor_id;sensor_type;location;lat;lon;timestamp;P1;durP1;ratioP1;P2;durP2;ratioP2
57899;SDS011;60605;53.716;19.940;2023-02-10T00:03:42;33.20;;;16.70;;
57899;SDS011;60605;53.716;19.940;2023-02-10T00:08:46;41.20;;;18.50;;
57899;SDS011;60605;53.716;19.940;2023-02-10T00:13:53;54.60;;;21.00;;
57899;SDS011;60605;53.716;19.940;2023-02-10T00:24:00;42.70;;;18.20;;
57899;SDS011;60605;53.716;19.940;2023-02-10T00:29:03;67.80;;;25.10;;
57899;SDS011;60605;53.716;19.940;2023-02-10T00:34:08;31.80;;;14.80;;
57899;SDS011;60605;53.716;19.940;2023-02-10T00:39:14;39.70;;;16.60;;
57899;SDS011;60605;53.716;19.940;2023-02-10T00:44:18;38.00;;;16.30;;
57899;SDS011;60605;53.716;19.940;2023-02-10T00:49:21;28.90;;;15.10;;
57899;SDS011;60605;53.716;19.940;2023-02-10T00:54:24;45.70;;;17.80;;
57899;SDS011;60605;53.716;19.940;2023-02-10T00:59:27;37.70;;;16.40;;
57899;SDS011;60605;53.716;19.940;2023-02-10T01:04:30;34.20;;;15.50;;
57899;SDS011;60605;53.716;19.940;2023-02-10T01:14:36;28.90;;;14.50;;
57899;SDS011;60605;53.716;19.940;2023-02-10T01:19:40;25.90;;;12.50;;
57899;SDS011;60605;53.716;19.940;2023-02-10T01:24:43;26.30;;;13.30;;
57899;SDS011;60605;53.716;19.940;2023-02-10T01:34:49;30.20;;;13.00;;
57899;SDS011;60605;53.716;19.940;2023-02-10T01:39:53;35.40;;;15.30;;
57899;SDS011;60605;53.716;19.940;2023-02-10T01:50:35;26.60;;;14.30;;
57899;SDS011;60605;53.716;19.940;2023-02-10T01:55:47;27.70;;;12.50;;
57899;SDS011;60605;53.716;19.940;2023-02-10T02:00:55;34.70;;;14.40;;
57899;SDS011;60605;53.716;19.940;2023-02-10T02:05:58;27.10;;;12.70;;
57899;SDS011;60605;53.716;19.940;2023-02-10T02:16:28;29.70;;;12.70;;
57899;SDS011;60605;53.716;19.940;2023-02-10T02:27:37;27.60;;;13.50;;
57899;SDS011;60605;53.716;19.940;2023-02-10T02:38:18;26.20;;;12.50;;
57899;SDS011;60605;53.716;19.940;2023-02-10T02:43:22;22.40;;;10.70;;
57899;SDS011;60605;53.716;19.940;2023-02-10T03:04:30;20.10;;;10.90;;
57899;SDS011;60605;53.716;19.940;2023-02-10T03:09:36;23.40;;;11.80;;
57899;SDS011;60605;53.716;19.940;2023-02-10T03:14:40;24.10;;;12.10;;
57899;SDS011;60605;53.716;19.940;2023-02-10T03:19:43;23.60;;;11.30;;
57899;SDS011;60605;53.716;19.940;2023-02-10T03:24:46;11.60;;;6.60;;
57899;SDS011;60605;53.716;19.940;2023-02-10T03:29:50;24.50;;;12.00;;
57899;SDS011;60605;53.716;19.940;2023-02-10T03:34:54;24.60;;;10.80;;
57899;SDS011;60605;53.716;19.940;2023-02-10T03:45:00;12.70;;;8.40;;
57899;SDS011;60605;53.716;19.940;2023-02-10T03:50:04;22.60;;;12.40;;
57899;SDS011;60605;53.716;19.940;2023-02-10T03:55:07;20.00;;;10.90;;
57899;SDS011;60605;53.716;19.940;2023-02-10T04:00:11;19.30;;;10.80;;
57899;SDS011;60605;53.716;19.940;2023-02-10T04:05:16;22.30;;;10.50;;
57899;SDS011;60605;53.716;19.940;2023-02-10T04:25:30;24.10;;;10.60;;
57899;SDS011;60605;53.716;19.940;2023-02-10T04:30:34;24.70;;;11.90;;
57899;SDS011;60605;53.716;19.940;2023-02-10T04:35:37;19.80;;;11.10;;
57899;SDS011;60605;53.716;19.940;2023-02-10T04:40:40;24.80;;;12.50;;
57899;SDS011;60605;53.716;19.940;2023-02-10T04:45:44;22.10;;;10.60;;
57899;SDS011;60605;53.716;19.940;2023-02-10T04:50:48;26.10;;;13.30;;
57899;SDS011;60605;53.716;19.940;2023-02-10T04:55:52;24.40;;;12.30;;
57899;SDS011;60605;53.716;19.940;2023-02-10T05:05:59;19.20;;;9.50;;
57899;SDS011;60605;53.716;19.940;2023-02-10T05:11:10;26.40;;;12.30;;
57899;SDS011;60605;53.716;19.940;2023-02-10T05:16:15;26.60;;;12.20;;
57899;SDS011;60605;53.716;19.940;2023-02-10T05:21:19;27.50;;;11.50;;
57899;SDS011;60605;53.716;19.940;2023-02-10T05:26:22;31.20;;;18.30;;
57899;SDS011;60605;53.716;19.940;2023-02-10T05:31:26;30.80;;;13.60;;
57899;SDS011;60605;53.716;19.940;2023-02-10T05:36:29;23.60;;;13.20;;
57899;SDS011;60605;53.716;19.940;2023-02-10T05:41:32;23.60;;;12.60;;
57899;SDS011;60605;53.716;19.940;2023-02-10T05:46:37;24.10;;;12.00;;
57899;SDS011;60605;53.716;19.940;2023-02-10T05:51:40;28.30;;;13.10;;
57899;SDS011;60605;53.716;19.940;2023-02-10T05:56:44;25.30;;;13.30;;
57899;SDS011;60605;53.716;19.940;2023-02-10T06:01:47;26.30;;;13.50;;
57899;SDS011;60605;53.716;19.940;2023-02-10T06:06:51;13.10;;;7.80;;
57899;SDS011;60605;53.716;19.940;2023-02-10T06:11:54;24.50;;;12.90;;
57899;SDS011;60605;53.716;19.940;2023-02-10T06:16:58;29.40;;;13.70;;
57899;SDS011;60605;53.716;19.940;2023-02-10T06:22:01;31.80;;;14.80;;
57899;SDS011;60605;53.716;19.940;2023-02-10T06:27:04;28.10;;;14.60;;
57899;SDS011;60605;53.716;19.940;2023-02-10T06:32:08;28.90;;;13.50;;
57899;SDS011;60605;53.716;19.940;2023-02-10T06:37:11;26.70;;;12.40;;
57899;SDS011;60605;53.716;19.940;2023-02-10T06:42:14;20.90;;;10.90;;
57899;SDS011;60605;53.716;19.940;2023-02-10T06:47:17;22.70;;;11.90;;
57899;SDS011;60605;53.716;19.940;2023-02-10T06:52:20;21.90;;;11.80;;
57899;SDS011;60605;53.716;19.940;2023-02-10T06:57:24;29.90;;;13.50;;
57899;SDS011;60605;53.716;19.940;2023-02-10T07:02:29;22.80;;;12.90;;
57899;SDS011;60605;53.716;19.940;2023-02-10T07:07:34;24.20;;;12.80;;
57899;SDS011;60605;53.716;19.940;2023-02-10T07:12:38;23.50;;;11.80;;
57899;SDS011;60605;53.716;19.940;2023-02-10T07:17:41;25.70;;;13.00;;
57899;SDS011;60605;53.716;19.940;2023-02-10T07:22:47;27.70;;;13.90;;
57899;SDS011;60605;53.716;19.940;2023-02-10T07:27:50;22.80;;;13.40;;
57899;SDS011;60605;53.716;19.940;2023-02-10T07:37:57;22.60;;;12.50;;
57899;SDS011;60605;53.716;19.940;2023-02-10T07:43:00;28.10;;;13.60;;
57899;SDS011;60605;53.716;19.940;2023-02-10T07:53:06;23.30;;;11.40;;
57899;SDS011;60605;53.716;19.940;2023-02-10T08:03:13;14.40;;;8.40;;
57899;SDS011;60605;53.716;19.940;2023-02-10T08:08:17;22.70;;;11.50;;
57899;SDS011;60605;53.716;19.940;2023-02-10T08:13:21;23.70;;;12.50;;
57899;SDS011;60605;53.716;19.940;2023-02-10T08:18:24;18.70;;;10.00;;
57899;SDS011;60605;53.716;19.940;2023-02-10T08:28:31;24.70;;;13.10;;
57899;SDS011;60605;53.716;19.940;2023-02-10T08:33:35;29.10;;;14.10;;
57899;SDS011;60605;53.716;19.940;2023-02-10T08:38:48;22.10;;;10.80;;
57899;SDS011;60605;53.716;19.940;2023-02-10T08:43:52;27.00;;;12.70;;
57899;SDS011;60605;53.716;19.940;2023-02-10T08:48:55;22.70;;;11.60;;
57899;SDS011;60605;53.716;19.940;2023-02-10T08:59:03;25.90;;;12.90;;
57899;SDS011;60605;53.716;19.940;2023-02-10T09:04:06;24.90;;;12.60;;
57899;SDS011;60605;53.716;19.940;2023-02-10T09:09:10;25.20;;;13.10;;
57899;SDS011;60605;53.716;19.940;2023-02-10T09:14:14;21.10;;;13.10;;
57899;SDS011;60605;53.716;19.940;2023-02-10T09:19:18;21.60;;;12.30;;
57899;SDS011;60605;53.716;19.940;2023-02-10T09:24:22;22.00;;;13.10;;
57899;SDS011;60605;53.716;19.940;2023-02-10T09:29:26;66.80;;;42.30;;
57899;SDS011;60605;53.716;19.940;2023-02-10T09:34:29;19.00;;;12.30;;
57899;SDS011;60605;53.716;19.940;2023-02-10T09:39:35;20.30;;;12.20;;
57899;SDS011;60605;53.716;19.940;2023-02-10T09:44:41;157.70;;;79.80;;
57899;SDS011;60605;53.716;19.940;2023-02-10T09:50:05;96.60;;;51.10;;
57899;SDS011;60605;53.716;19.940;2023-02-10T09:55:32;19.20;;;11.70;;
57899;SDS011;60605;53.716;19.940;2023-02-10T10:00:42;17.00;;;10.60;;
57899;SDS011;60605;53.716;19.940;2023-02-10T10:11:01;18.00;;;10.90;;
57899;SDS011;60605;53.716;19.940;2023-02-10T10:27:11;19.70;;;10.50;;
57899;SDS011;60605;53.716;19.940;2023-02-10T10:32:44;18.90;;;9.80;;
57899;SDS011;60605;53.716;19.940;2023-02-10T10:37:50;19.40;;;9.70;;
57899;SDS011;60605;53.716;19.940;2023-02-10T10:42:53;15.70;;;8.40;;
57899;SDS011;60605;53.716;19.940;2023-02-10T10:58:50;30.70;;;14.20;;
57899;SDS011;60605;53.716;19.940;2023-02-10T11:04:02;24.80;;;11.20;;
57899;SDS011;60605;53.716;19.940;2023-02-10T11:09:16;23.30;;;10.90;;
57899;SDS011;60605;53.716;19.940;2023-02-10T11:14:25;23.10;;;10.80;;
57899;SDS011;60605;53.716;19.940;2023-02-10T11:19:31;21.60;;;10.00;;
57899;SDS011;60605;53.716;19.940;2023-02-10T11:24:51;26.30;;;10.90;;
57899;SDS011;60605;53.716;19.940;2023-02-10T11:29:57;24.10;;;11.60;;
57899;SDS011;60605;53.716;19.940;2023-02-10T11:35:02;24.90;;;12.40;;
57899;SDS011;60605;53.716;19.940;2023-02-10T11:40:19;28.80;;;12.20;;
57899;SDS011;60605;53.716;19.940;2023-02-10T11:45:28;24.40;;;10.60;;
57899;SDS011;60605;53.716;19.940;2023-02-10T11:50:33;31.50;;;14.40;;
57899;SDS011;60605;53.716;19.940;2023-02-10T11:55:41;30.80;;;13.70;;
57899;SDS011;60605;53.716;19.940;2023-02-10T12:00:58;28.20;;;15.00;;
57899;SDS011;60605;53.716;19.940;2023-02-10T12:06:12;31.60;;;14.00;;
57899;SDS011;60605;53.716;19.940;2023-02-10T12:17:38;32.00;;;15.50;;
57899;SDS011;60605;53.716;19.940;2023-02-10T12:55:04;32.50;;;15.70;;
57899;SDS011;60605;53.716;19.940;2023-02-10T13:05:40;36.30;;;15.60;;
57899;SDS011;60605;53.716;19.940;2023-02-10T13:10:49;32.90;;;12.80;;
57899;SDS011;60605;53.716;19.940;2023-02-10T13:16:02;26.70;;;12.40;;
57899;SDS011;60605;53.716;19.940;2023-02-10T13:21:13;34.80;;;14.90;;
57899;SDS011;60605;53.716;19.940;2023-02-10T13:37:16;35.00;;;13.10;;
57899;SDS011;60605;53.716;19.940;2023-02-10T13:53:01;36.80;;;15.60;;
57899;SDS011;60605;53.716;19.940;2023-02-10T14:19:18;51.00;;;22.30;;
57899;SDS011;60605;53.716;19.940;2023-02-10T14:24:23;39.30;;;18.90;;
57899;SDS011;60605;53.716;19.940;2023-02-10T14:29:47;1942.20;;;809.40;;
57899;SDS011;60605;53.716;19.940;2023-02-10T14:35:23;227.60;;;133.00;;
57899;SDS011;60605;53.716;19.940;2023-02-10T14:40:31;77.90;;;43.80;;
57899;SDS011;60605;53.716;19.940;2023-02-10T14:45:35;57.90;;;32.60;;
57899;SDS011;60605;53.716;19.940;2023-02-10T14:50:42;61.50;;;28.50;;
57899;SDS011;60605;53.716;19.940;2023-02-10T14:55:52;66.90;;;30.10;;
57899;SDS011;60605;53.716;19.940;2023-02-10T15:06:14;1999.90;;;847.10;;
57899;SDS011;60605;53.716;19.940;2023-02-10T15:11:30;1999.90;;;845.30;;
57899;SDS011;60605;53.716;19.940;2023-02-10T15:16:59;1872.70;;;570.70;;
57899;SDS011;60605;53.716;19.940;2023-02-10T15:22:31;1179.90;;;417.00;;
57899;SDS011;60605;53.716;19.940;2023-02-10T15:27:44;300.40;;;55.90;;
57899;SDS011;60605;53.716;19.940;2023-02-10T15:37:54;102.20;;;26.40;;
57899;SDS011;60605;53.716;19.940;2023-02-10T15:43:20;241.70;;;48.00;;
57899;SDS011;60605;53.716;19.940;2023-02-10T15:48:30;120.30;;;44.50;;
57899;SDS011;60605;53.716;19.940;2023-02-10T15:53:40;230.80;;;46.80;;
57899;SDS011;60605;53.716;19.940;2023-02-10T15:58:44;100.50;;;32.00;;
57899;SDS011;60605;53.716;19.940;2023-02-10T16:03:47;114.70;;;30.90;;
57899;SDS011;60605;53.716;19.940;2023-02-10T16:13:54;74.80;;;26.60;;
57899;SDS011;60605;53.716;19.940;2023-02-10T16:18:57;69.60;;;30.20;;
57899;SDS011;60605;53.716;19.940;2023-02-10T16:24:01;67.90;;;24.00;;
57899;SDS011;60605;53.716;19.940;2023-02-10T16:29:09;68.50;;;29.10;;
57899;SDS011;60605;53.716;19.940;2023-02-10T16:34:20;72.30;;;26.40;;
57899;SDS011;60605;53.716;19.940;2023-02-10T16:39:24;49.60;;;22.40;;
57899;SDS011;60605;53.716;19.940;2023-02-10T16:44:29;59.50;;;27.30;;
57899;SDS011;60605;53.716;19.940;2023-02-10T16:54:36;61.50;;;28.00;;
57899;SDS011;60605;53.716;19.940;2023-02-10T16:59:43;79.20;;;29.10;;
57899;SDS011;60605;53.716;19.940;2023-02-10T17:04:47;70.40;;;28.00;;
57899;SDS011;60605;53.716;19.940;2023-02-10T17:09:50;76.20;;;29.70;;
57899;SDS011;60605;53.716;19.940;2023-02-10T17:14:53;73.00;;;27.50;;
57899;SDS011;60605;53.716;19.940;2023-02-10T17:19:57;58.50;;;24.60;;
57899;SDS011;60605;53.716;19.940;2023-02-10T17:25:01;70.60;;;28.80;;
57899;SDS011;60605;53.716;19.940;2023-02-10T17:30:06;81.20;;;29.00;;
57899;SDS011;60605;53.716;19.940;2023-02-10T17:35:12;63.40;;;25.20;;
57899;SDS011;60605;53.716;19.940;2023-02-10T17:40:19;66.30;;;27.90;;
57899;SDS011;60605;53.716;19.940;2023-02-10T17:45:27;57.40;;;28.10;;
57899;SDS011;60605;53.716;19.940;2023-02-10T17:50:34;63.90;;;25.70;;
57899;SDS011;60605;53.716;19.940;2023-02-10T18:00:44;59.20;;;21.00;;
57899;SDS011;60605;53.716;19.940;2023-02-10T18:05:50;83.70;;;31.90;;
57899;SDS011;60605;53.716;19.940;2023-02-10T18:10:55;66.90;;;27.40;;
57899;SDS011;60605;53.716;19.940;2023-02-10T18:15:59;56.80;;;28.50;;
57899;SDS011;60605;53.716;19.940;2023-02-10T18:21:04;67.00;;;26.80;;
57899;SDS011;60605;53.716;19.940;2023-02-10T18:26:09;63.20;;;27.70;;
57899;SDS011;60605;53.716;19.940;2023-02-10T18:31:14;62.50;;;23.80;;
57899;SDS011;60605;53.716;19.940;2023-02-10T18:36:18;55.90;;;26.10;;
57899;SDS011;60605;53.716;19.940;2023-02-10T18:41:22;55.20;;;23.50;;
57899;SDS011;60605;53.716;19.940;2023-02-10T18:46:26;45.10;;;19.90;;
57899;SDS011;60605;53.716;19.940;2023-02-10T18:51:30;50.60;;;21.40;;
57899;SDS011;60605;53.716;19.940;2023-02-10T18:56:35;55.60;;;23.60;;
57899;SDS011;60605;53.716;19.940;2023-02-10T19:01:40;58.40;;;23.80;;
57899;SDS011;60605;53.716;19.940;2023-02-10T19:06:43;916.70;;;336.60;;
57899;SDS011;60605;53.716;19.940;2023-02-10T19:11:48;1082.30;;;465.70;;
57899;SDS011;60605;53.716;19.940;2023-02-10T19:16:52;1395.50;;;603.90;;
57899;SDS011;60605;53.716;19.940;2023-02-10T19:27:01;305.10;;;72.70;;
57899;SDS011;60605;53.716;19.940;2023-02-10T19:32:05;684.70;;;258.40;;
57899;SDS011;60605;53.716;19.940;2023-02-10T19:37:09;241.40;;;53.40;;
57899;SDS011;60605;53.716;19.940;2023-02-10T19:42:15;478.70;;;95.50;;
57899;SDS011;60605;53.716;19.940;2023-02-10T19:47:19;561.60;;;221.90;;
57899;SDS011;60605;53.716;19.940;2023-02-10T19:57:26;420.40;;;86.00;;
57899;SDS011;60605;53.716;19.940;2023-02-10T20:02:32;491.30;;;150.00;;
57899;SDS011;60605;53.716;19.940;2023-02-10T20:07:35;258.20;;;58.50;;
57899;SDS011;60605;53.716;19.940;2023-02-10T20:12:39;286.00;;;88.20;;
57899;SDS011;60605;53.716;19.940;2023-02-10T20:17:43;169.30;;;42.60;;
57899;SDS011;60605;53.716;19.940;2023-02-10T20:22:47;158.60;;;54.60;;
57899;SDS011;60605;53.716;19.940;2023-02-10T20:27:51;122.70;;;36.40;;
57899;SDS011;60605;53.716;19.940;2023-02-10T20:37:58;88.00;;;26.20;;
57899;SDS011;60605;53.716;19.940;2023-02-10T20:43:01;86.10;;;27.40;;
57899;SDS011;60605;53.716;19.940;2023-02-10T20:53:08;114.70;;;35.40;;
57899;SDS011;60605;53.716;19.940;2023-02-10T20:58:11;68.60;;;25.30;;
57899;SDS011;60605;53.716;19.940;2023-02-10T21:03:15;112.70;;;33.90;;
57899;SDS011;60605;53.716;19.940;2023-02-10T21:08:19;70.80;;;35.10;;
57899;SDS011;60605;53.716;19.940;2023-02-10T21:13:22;54.70;;;21.90;;
57899;SDS011;60605;53.716;19.940;2023-02-10T21:18:26;66.40;;;23.40;;
57899;SDS011;60605;53.716;19.940;2023-02-10T21:23:30;83.30;;;26.70;;
57899;SDS011;60605;53.716;19.940;2023-02-10T21:28:34;100.30;;;35.50;;
57899;SDS011;60605;53.716;19.940;2023-02-10T21:33:38;59.80;;;26.10;;
57899;SDS011;60605;53.716;19.940;2023-02-10T21:38:42;61.30;;;20.70;;
57899;SDS011;60605;53.716;19.940;2023-02-10T21:48:48;72.10;;;21.90;;
57899;SDS011;60605;53.716;19.940;2023-02-10T21:53:52;48.90;;;18.90;;
57899;SDS011;60605;53.716;19.940;2023-02-10T21:58:55;75.00;;;31.60;;
57899;SDS011;60605;53.716;19.940;2023-02-10T22:03:59;67.10;;;23.40;;
57899;SDS011;60605;53.716;19.940;2023-02-10T22:09:07;54.20;;;25.10;;
57899;SDS011;60605;53.716;19.940;2023-02-10T22:14:13;51.60;;;19.70;;
57899;SDS011;60605;53.716;19.940;2023-02-10T22:19:18;65.80;;;23.20;;
57899;SDS011;60605;53.716;19.940;2023-02-10T22:24:21;39.30;;;17.60;;
57899;SDS011;60605;53.716;19.940;2023-02-10T22:29:25;53.00;;;19.80;;
57899;SDS011;60605;53.716;19.940;2023-02-10T22:34:29;50.80;;;18.80;;
57899;SDS011;60605;53.716;19.940;2023-02-10T22:39:32;32.60;;;12.30;;
57899;SDS011;60605;53.716;19.940;2023-02-10T22:49:40;34.30;;;16.30;;
57899;SDS011;60605;53.716;19.940;2023-02-10T22:59:46;49.20;;;20.30;;
57899;SDS011;60605;53.716;19.940;2023-02-10T23:04:49;40.50;;;18.90;;
57899;SDS011;60605;53.716;19.940;2023-02-10T23:09:53;49.20;;;18.30;;
57899;SDS011;60605;53.716;19.940;2023-02-10T23:20:00;36.40;;;16.10;;
57899;SDS011;60605;53.716;19.940;2023-02-10T23:25:04;34.80;;;16.40;;
57899;SDS011;60605;53.716;19.940;2023-02-10T23:30:08;36.60;;;16.40;;
57899;SDS011;60605;53.716;19.940;2023-02-10T23:35:12;54.80;;;20.70;;
57899;SDS011;60605;53.716;19.940;2023-02-10T23:40:17;35.20;;;16.60;;
57899;SDS011;60605;53.716;19.940;2023-02-10T23:45:21;29.30;;;15.30;;
57899;SDS011;60605;53.716;19.940;2023-02-10T23:50:24;35.90;;;18.40;;
57899;SDS011;60605;53.716;19.940;2023-02-10T23:55:28;43.70;;;19.50;;
